Terminal Aerodrome Forecast
Issued by NWS

Home | Current Version | Previous Version | Text Only | Print | Product List | Glossary On
Versions: 1 2 3 4 5 6 7 8 9 10 11 12 13 14 15
625
FTUS42 TJSJ 191742
TAFJSJ
TAF
TJSJ 191742Z 1918/2018 03015G30KT P6SM FEW015 SCT035 BKN100
      TEMPO 1919/1922 -SHRA SCT015 BKN035
     FM192200 03025G35KT P6SM VCTS SCT025CB BKN035 BKN070
     FM200600 02030G54KT 6SM TSRA SCT025CB BKN035
     FM201100 02060G90KT 1SM +TSRA SCT015 OVC025CB=

USA.gov is the U.S. government's official web portal to all federal, state and local government web resources and services.